sensor_id;sensor_type;location;lat;lon;timestamp;pressure;altitude;pressure_sealevel;temperature;humidity
69749;BME280;57019;52.354;6.584;2022-09-12T00:01:07;101744.66;;;21.86;53.22
69749;BME280;57019;52.354;6.584;2022-09-12T00:03:33;101750.09;;;21.84;53.27
69749;BME280;57019;52.354;6.584;2022-09-12T00:05:59;101751.09;;;21.83;53.22
69749;BME280;57019;52.354;6.584;2022-09-12T00:08:24;101744.19;;;21.82;53.25
69749;BME280;57019;52.354;6.584;2022-09-12T00:10:49;101750.25;;;21.83;53.29
69749;BME280;57019;52.354;6.584;2022-09-12T00:13:15;101744.19;;;21.82;53.13
69749;BME280;57019;52.354;6.584;2022-09-12T00:15:42;101741.53;;;21.82;53.22
69749;BME280;57019;52.354;6.584;2022-09-12T00:18:09;101740.91;;;21.80;53.11
69749;BME280;57019;52.354;6.584;2022-09-12T00:20:40;101741.72;;;21.81;53.17
69749;BME280;57019;52.354;6.584;2022-09-12T00:23:06;101740.91;;;21.80;53.23
69749;BME280;57019;52.354;6.584;2022-09-12T00:25:31;101743.53;;;21.80;52.99
69749;BME280;57019;52.354;6.584;2022-09-12T00:27:57;101736.81;;;21.78;53.34
69749;BME280;57019;52.354;6.584;2022-09-12T00:30:22;101735.97;;;21.77;52.99
69749;BME280;57019;52.354;6.584;2022-09-12T00:32:48;101741.22;;;21.77;53.19
69749;BME280;57019;52.354;6.584;2022-09-12T00:35:14;101736.97;;;21.76;53.01
69749;BME280;57019;52.354;6.584;2022-09-12T00:37:39;101729.09;;;21.76;52.97
69749;BME280;57019;52.354;6.584;2022-09-12T00:40:05;101731.06;;;21.74;53.11
69749;BME280;57019;52.354;6.584;2022-09-12T00:42:31;101738.16;;;21.74;53.03
69749;BME280;57019;52.354;6.584;2022-09-12T00:44:56;101734.69;;;21.73;53.18
69749;BME280;57019;52.354;6.584;2022-09-12T00:47:24;101734.69;;;21.73;52.94
69749;BME280;57019;52.354;6.584;2022-09-12T00:49:56;101730.44;;;21.72;52.94
69749;BME280;57019;52.354;6.584;2022-09-12T00:52:33;101723.53;;;21.71;53.08
69749;BME280;57019;52.354;6.584;2022-09-12T00:55:04;101736.50;;;21.73;52.97
69749;BME280;57019;52.354;6.584;2022-09-12T00:57:37;101731.25;;;21.73;52.79
69749;BME280;57019;52.354;6.584;2022-09-12T01:00:17;101725.31;;;21.71;52.99
69749;BME280;57019;52.354;6.584;2022-09-12T01:02:48;101727.13;;;21.70;52.96
69749;BME280;57019;52.354;6.584;2022-09-12T01:05:14;101720.22;;;21.69;52.95
69749;BME280;57019;52.354;6.584;2022-09-12T01:07:40;101720.22;;;21.69;52.68
69749;BME280;57019;52.354;6.584;2022-09-12T01:10:09;101723.03;;;21.67;52.76
69749;BME280;57019;52.354;6.584;2022-09-12T01:12:36;101720.41;;;21.67;52.93
69749;BME280;57019;52.354;6.584;2022-09-12T01:15:03;101717.59;;;21.69;52.83
69749;BME280;57019;52.354;6.584;2022-09-12T01:17:40;101723.03;;;21.67;52.85
69749;BME280;57019;52.354;6.584;2022-09-12T01:28:42;101714.69;;;21.64;52.71
69749;BME280;57019;52.354;6.584;2022-09-12T01:31:20;101718.31;;;21.63;52.74
69749;BME280;57019;52.354;6.584;2022-09-12T01:33:52;101713.03;;;21.63;52.59
69749;BME280;57019;52.354;6.584;2022-09-12T01:36:27;101708.78;;;21.62;52.51
69749;BME280;57019;52.354;6.584;2022-09-12T01:40:08;101713.03;;;21.63;52.48
69749;BME280;57019;52.354;6.584;2022-09-12T01:45:02;101717.63;;;21.61;52.67
69749;BME280;57019;52.354;6.584;2022-09-12T01:50:26;101709.94;;;21.59;52.56
69749;BME280;57019;52.354;6.584;2022-09-12T01:53:07;101715.34;;;21.58;52.39
69749;BME280;57019;52.354;6.584;2022-09-12T01:55:40;101715.34;;;21.58;52.30
69749;BME280;57019;52.354;6.584;2022-09-12T01:58:11;101704.84;;;21.58;52.43
69749;BME280;57019;52.354;6.584;2022-09-12T02:00:48;101692.69;;;21.57;52.39
69749;BME280;57019;52.354;6.584;2022-09-12T02:03:19;101701.59;;;21.56;52.41
69749;BME280;57019;52.354;6.584;2022-09-12T02:05:53;101706.84;;;21.56;52.42
69749;BME280;57019;52.354;6.584;2022-09-12T02:08:25;101699.94;;;21.55;52.49
69749;BME280;57019;52.354;6.584;2022-09-12T02:10:56;101697.13;;;21.56;52.06
69749;BME280;57019;52.354;6.584;2022-09-12T02:13:31;101693.84;;;21.54;52.15
69749;BME280;57019;52.354;6.584;2022-09-12T02:16:07;101686.97;;;21.53;52.12
69749;BME280;57019;52.354;6.584;2022-09-12T02:18:41;101686.13;;;21.52;52.22
69749;BME280;57019;52.354;6.584;2022-09-12T02:21:09;101675.63;;;21.52;52.18
69749;BME280;57019;52.354;6.584;2022-09-12T02:23:38;101680.88;;;21.52;51.99
69749;BME280;57019;52.354;6.584;2022-09-12T02:26:12;101673.97;;;21.51;52.23
69749;BME280;57019;52.354;6.584;2022-09-12T02:28:41;101667.06;;;21.50;52.03
69749;BME280;57019;52.354;6.584;2022-09-12T02:33:44;101665.44;;;21.49;52.20
69749;BME280;57019;52.354;6.584;2022-09-12T02:36:41;101667.25;;;21.49;52.01
69749;BME280;57019;52.354;6.584;2022-09-12T02:39:01;101663.78;;;21.48;51.91
69749;BME280;57019;52.354;6.584;2022-09-12T02:41:26;101657.72;;;21.48;51.86
69749;BME280;57019;52.354;6.584;2022-09-12T02:43:52;101666.59;;;21.47;52.02
69749;BME280;57019;52.354;6.584;2022-09-12T02:46:24;101659.69;;;21.46;52.10
69749;BME280;57019;52.354;6.584;2022-09-12T02:48:55;101657.91;;;21.46;51.80
69749;BME280;57019;52.354;6.584;2022-09-12T02:51:22;101656.25;;;21.45;52.04
69749;BME280;57019;52.354;6.584;2022-09-12T02:53:48;101647.56;;;21.45;51.84
69749;BME280;57019;52.354;6.584;2022-09-12T02:56:29;101648.38;;;21.45;51.86
69749;BME280;57019;52.354;6.584;2022-09-12T02:59:05;101643.13;;;21.45;51.87
69749;BME280;57019;52.354;6.584;2022-09-12T03:09:42;101638.22;;;21.42;51.70
69749;BME280;57019;52.354;6.584;2022-09-12T03:21:17;101627.88;;;21.41;51.65
69749;BME280;57019;52.354;6.584;2022-09-12T03:24:14;101624.41;;;21.40;51.62
69749;BME280;57019;52.354;6.584;2022-09-12T03:26:55;101629.84;;;21.39;51.51
69749;BME280;57019;52.354;6.584;2022-09-12T03:29:24;101621.16;;;21.38;51.73
69749;BME280;57019;52.354;6.584;2022-09-12T03:31:56;101629.03;;;21.38;51.41
69749;BME280;57019;52.354;6.584;2022-09-12T03:34:23;101632.47;;;21.39;51.57
69749;BME280;57019;52.354;6.584;2022-09-12T03:36:49;101630.81;;;21.38;51.73
69749;BME280;57019;52.354;6.584;2022-09-12T03:39:15;101628.38;;;21.36;51.63
69749;BME280;57019;52.354;6.584;2022-09-12T03:41:40;101626.75;;;21.35;51.61
69749;BME280;57019;52.354;6.584;2022-09-12T03:44:06;101625.91;;;21.34;51.36
69749;BME280;57019;52.354;6.584;2022-09-12T03:46:32;101622.47;;;21.34;51.68
69749;BME280;57019;52.354;6.584;2022-09-12T03:48:57;101625.13;;;21.34;51.51
69749;BME280;57019;52.354;6.584;2022-09-12T03:51:23;101625.13;;;21.34;51.35
69749;BME280;57019;52.354;6.584;2022-09-12T03:53:48;101615.59;;;21.33;51.54
69749;BME280;57019;52.354;6.584;2022-09-12T03:56:14;101612.97;;;21.33;51.63
69749;BME280;57019;52.354;6.584;2022-09-12T03:58:39;101616.56;;;21.32;51.28
69749;BME280;57019;52.354;6.584;2022-09-12T04:01:16;101616.56;;;21.32;51.23
69749;BME280;57019;52.354;6.584;2022-09-12T04:03:44;101616.56;;;21.32;51.29
69749;BME280;57019;52.354;6.584;2022-09-12T04:06:11;101610.69;;;21.30;51.50
69749;BME280;57019;52.354;6.584;2022-09-12T04:08:37;101614.13;;;21.30;51.47
69749;BME280;57019;52.354;6.584;2022-09-12T04:11:10;101617.72;;;21.29;51.44
69749;BME280;57019;52.354;6.584;2022-09-12T04:13:37;101615.44;;;21.26;51.44
69749;BME280;57019;52.354;6.584;2022-09-12T04:16:03;101613.97;;;21.24;51.43
69749;BME280;57019;52.354;6.584;2022-09-12T04:18:30;101613.81;;;21.25;51.41
69749;BME280;57019;52.354;6.584;2022-09-12T04:20:56;101616.91;;;21.29;51.43
69749;BME280;57019;52.354;6.584;2022-09-12T04:23:21;101614.94;;;21.31;51.58
69749;BME280;57019;52.354;6.584;2022-09-12T04:25:58;101615.75;;;21.31;51.40
69749;BME280;57019;52.354;6.584;2022-09-12T04:28:24;101612.31;;;21.31;51.11
69749;BME280;57019;52.354;6.584;2022-09-12T04:30:50;101616.91;;;21.29;51.04
69749;BME280;57019;52.354;6.584;2022-09-12T04:33:16;101611.66;;;21.29;51.32
69749;BME280;57019;52.354;6.584;2022-09-12T04:35:41;101608.41;;;21.27;51.29
69749;BME280;57019;52.354;6.584;2022-09-12T04:38:07;101614.63;;;21.26;51.21
69749;BME280;57019;52.354;6.584;2022-09-12T04:40:33;101615.63;;;21.25;51.28
69749;BME280;57019;52.354;6.584;2022-09-12T04:42:58;101608.72;;;21.24;51.13
69749;BME280;57019;52.354;6.584;2022-09-12T04:45:24;101607.09;;;21.23;51.00
69749;BME280;57019;52.354;6.584;2022-09-12T04:47:49;101605.28;;;21.23;51.21
69749;BME280;57019;52.354;6.584;2022-09-12T04:50:15;101603.47;;;21.24;51.00
69749;BME280;57019;52.354;6.584;2022-09-12T04:52:41;101609.56;;;21.24;50.66
69749;BME280;57019;52.354;6.584;2022-09-12T04:55:07;101607.75;;;21.25;51.04
69749;BME280;57019;52.354;6.584;2022-09-12T04:57:34;101601.16;;;21.29;51.29
69749;BME280;57019;52.354;6.584;2022-09-12T04:59:59;101607.72;;;21.33;51.22
69749;BME280;57019;52.354;6.584;2022-09-12T05:02:25;101604.09;;;21.34;50.96
69749;BME280;57019;52.354;6.584;2022-09-12T05:04:50;101606.38;;;21.37;51.12
69749;BME280;57019;52.354;6.584;2022-09-12T05:07:17;101598.50;;;21.37;51.01
69749;BME280;57019;52.354;6.584;2022-09-12T05:09:43;101593.25;;;21.37;50.69
69749;BME280;57019;52.354;6.584;2022-09-12T05:12:08;101593.25;;;21.37;50.92
69749;BME280;57019;52.354;6.584;2022-09-12T05:14:34;101591.59;;;21.36;50.75
69749;BME280;57019;52.354;6.584;2022-09-12T05:17:00;101593.41;;;21.35;50.71
69749;BME280;57019;52.354;6.584;2022-09-12T05:19:26;101603.75;;;21.37;50.83
69749;BME280;57019;52.354;6.584;2022-09-12T05:21:52;101602.94;;;21.37;50.56
69749;BME280;57019;52.354;6.584;2022-09-12T05:24:17;101596.84;;;21.36;50.70
69749;BME280;57019;52.354;6.584;2022-09-12T05:26:42;101600.50;;;21.35;50.64
69749;BME280;57019;52.354;6.584;2022-09-12T05:29:08;101593.59;;;21.34;50.68
69749;BME280;57019;52.354;6.584;2022-09-12T05:31:33;101604.09;;;21.34;50.56
69749;BME280;57019;52.354;6.584;2022-09-12T05:33:59;101591.94;;;21.33;50.60
69749;BME280;57019;52.354;6.584;2022-09-12T05:36:27;101599.81;;;21.33;50.51
69749;BME280;57019;52.354;6.584;2022-09-12T05:38:54;101600.81;;;21.32;50.57
69749;BME280;57019;52.354;6.584;2022-09-12T05:41:24;101595.56;;;21.32;50.56
69749;BME280;57019;52.354;6.584;2022-09-12T05:44:10;101599.19;;;21.31;50.82
69749;BME280;57019;52.354;6.584;2022-09-12T05:46:43;101600.00;;;21.31;50.50
69749;BME280;57019;52.354;6.584;2022-09-12T05:49:11;101596.72;;;21.29;50.60
69749;BME280;57019;52.354;6.584;2022-09-12T05:51:42;101592.28;;;21.30;50.87
69749;BME280;57019;52.354;6.584;2022-09-12T05:54:11;101592.28;;;21.30;50.72
69749;BME280;57019;52.354;6.584;2022-09-12T05:56:40;101601.97;;;21.29;51.09
69749;BME280;57019;52.354;6.584;2022-09-12T05:59:10;101592.28;;;21.30;50.98
69749;BME280;57019;52.354;6.584;2022-09-12T06:01:36;101597.53;;;21.30;51.02
69749;BME280;57019;52.354;6.584;2022-09-12T06:04:03;101600.19;;;21.30;51.00
69749;BME280;57019;52.354;6.584;2022-09-12T06:06:31;101600.19;;;21.30;51.16
69749;BME280;57019;52.354;6.584;2022-09-12T06:09:02;101608.84;;;21.30;51.21
69749;BME280;57019;52.354;6.584;2022-09-12T06:11:30;101603.78;;;21.29;51.12
69749;BME280;57019;52.354;6.584;2022-09-12T06:13:57;101611.66;;;21.29;51.29
69749;BME280;57019;52.354;6.584;2022-09-12T06:16:28;101611.66;;;21.29;51.16
69749;BME280;57019;52.354;6.584;2022-09-12T06:18:55;101609.22;;;21.27;51.50
69749;BME280;57019;52.354;6.584;2022-09-12T06:21:22;101617.94;;;21.19;52.25
69749;BME280;57019;52.354;6.584;2022-09-12T06:23:48;101614.34;;;21.12;52.59
69749;BME280;57019;52.354;6.584;2022-09-12T06:26:15;101619.28;;;21.07;52.76
69749;BME280;57019;52.354;6.584;2022-09-12T06:28:43;101613.56;;;21.04;53.19
69749;BME280;57019;52.354;6.584;2022-09-12T06:31:13;101610.63;;;20.98;53.57
69749;BME280;57019;52.354;6.584;2022-09-12T06:33:41;101607.19;;;20.98;53.57
69749;BME280;57019;52.354;6.584;2022-09-12T06:36:15;101611.44;;;20.99;53.91
69749;BME280;57019;52.354;6.584;2022-09-12T06:38:41;101608.31;;;21.04;53.17
69749;BME280;57019;52.354;6.584;2022-09-12T06:41:09;101607.81;;;21.08;53.02
69749;BME280;57019;52.354;6.584;2022-09-12T06:43:36;101609.09;;;21.12;52.79
69749;BME280;57019;52.354;6.584;2022-09-12T06:46:03;101604.50;;;21.14;52.93
69749;BME280;57019;52.354;6.584;2022-09-12T06:48:28;101603.31;;;21.17;52.66
69749;BME280;57019;52.354;6.584;2022-09-12T06:51:01;101606.78;;;21.17;52.79
69749;BME280;57019;52.354;6.584;2022-09-12T06:53:28;101611.06;;;21.18;52.98
69749;BME280;57019;52.354;6.584;2022-09-12T06:56:05;101606.44;;;21.21;52.46
69749;BME280;57019;52.354;6.584;2022-09-12T06:58:32;101606.44;;;21.21;52.84
69749;BME280;57019;52.354;6.584;2022-09-12T07:01:09;101597.75;;;21.20;52.78
69749;BME280;57019;52.354;6.584;2022-09-12T07:03:36;101605.47;;;21.22;52.69
69749;BME280;57019;52.354;6.584;2022-09-12T07:06:09;101599.38;;;21.21;52.63
69749;BME280;57019;52.354;6.584;2022-09-12T07:08:36;101602.84;;;21.22;52.78
69749;BME280;57019;52.354;6.584;2022-09-12T07:13:43;101601.00;;;21.22;52.76
69749;BME280;57019;52.354;6.584;2022-09-12T07:16:09;101594.97;;;21.22;52.87
69749;BME280;57019;52.354;6.584;2022-09-12T07:18:36;101594.97;;;21.22;52.97
69749;BME280;57019;52.354;6.584;2022-09-12T07:21:08;101600.22;;;21.22;52.99
69749;BME280;57019;52.354;6.584;2022-09-12T07:23:34;101598.56;;;21.21;52.86
69749;BME280;57019;52.354;6.584;2022-09-12T07:26:00;101593.31;;;21.21;52.90
69749;BME280;57019;52.354;6.584;2022-09-12T07:28:27;101594.13;;;21.21;52.87
69749;BME280;57019;52.354;6.584;2022-09-12T07:30:53;101598.38;;;21.22;53.28
69749;BME280;57019;52.354;6.584;2022-09-12T07:33:20;101595.75;;;21.22;52.80
69749;BME280;57019;52.354;6.584;2022-09-12T07:35:45;101596.59;;;21.23;53.15
69749;BME280;57019;52.354;6.584;2022-09-12T07:38:11;101594.97;;;21.22;53.05
69749;BME280;57019;52.354;6.584;2022-09-12T07:40:36;101591.34;;;21.23;53.05
69749;BME280;57019;52.354;6.584;2022-09-12T07:43:01;101591.34;;;21.23;53.00
69749;BME280;57019;52.354;6.584;2022-09-12T07:45:27;101586.09;;;21.23;53.18
69749;BME280;57019;52.354;6.584;2022-09-12T07:47:53;101587.06;;;21.22;53.16
69749;BME280;57019;52.354;6.584;2022-09-12T07:50:18;101586.91;;;21.23;53.26
69749;BME280;57019;52.354;6.584;2022-09-12T07:52:43;101591.34;;;21.23;53.02
69749;BME280;57019;52.354;6.584;2022-09-12T07:55:09;101596.59;;;21.23;53.40
69749;BME280;57019;52.354;6.584;2022-09-12T07:57:34;101596.59;;;21.23;53.23
69749;BME280;57019;52.354;6.584;2022-09-12T07:59:59;101587.06;;;21.22;53.47
69749;BME280;57019;52.354;6.584;2022-09-12T08:02:25;101592.50;;;21.20;53.59
69749;BME280;57019;52.354;6.584;2022-09-12T08:04:50;101593.31;;;21.21;53.14
69749;BME280;57019;52.354;6.584;2022-09-12T08:07:15;101582.81;;;21.21;53.34
69749;BME280;57019;52.354;6.584;2022-09-12T08:09:43;101589.03;;;21.19;53.45
69749;BME280;57019;52.354;6.584;2022-09-12T08:12:08;101593.47;;;21.19;53.50
69749;BME280;57019;52.354;6.584;2022-09-12T08:14:34;101592.81;;;21.17;53.79
69749;BME280;57019;52.354;6.584;2022-09-12T08:16:59;101599.25;;;21.14;53.59
69749;BME280;57019;52.354;6.584;2022-09-12T08:19:25;101591.22;;;21.16;53.83
69749;BME280;57019;52.354;6.584;2022-09-12T08:21:50;101596.13;;;21.19;53.86
69749;BME280;57019;52.354;6.584;2022-09-12T08:24:16;101594.97;;;21.22;53.55
69749;BME280;57019;52.354;6.584;2022-09-12T08:26:41;101596.59;;;21.23;53.74
69749;BME280;57019;52.354;6.584;2022-09-12T08:29:07;101597.22;;;21.25;53.77
69749;BME280;57019;52.354;6.584;2022-09-12T08:31:33;101600.84;;;21.24;53.53
69749;BME280;57019;52.354;6.584;2022-09-12T08:34:02;101591.34;;;21.23;53.94
69749;BME280;57019;52.354;6.584;2022-09-12T08:36:28;101600.84;;;21.24;53.79
69749;BME280;57019;52.354;6.584;2022-09-12T08:38:57;101593.63;;;21.26;53.74
69749;BME280;57019;52.354;6.584;2022-09-12T08:41:31;101593.63;;;21.26;54.00
69749;BME280;57019;52.354;6.584;2022-09-12T08:52:50;101586.34;;;21.36;54.09
69749;BME280;57019;52.354;6.584;2022-09-12T08:58:34;101589.28;;;21.41;53.94
69749;BME280;57019;52.354;6.584;2022-09-12T09:01:23;101582.06;;;21.43;53.94
69749;BME280;57019;52.354;6.584;2022-09-12T09:12:52;101573.28;;;21.51;54.00
69749;BME280;57019;52.354;6.584;2022-09-12T09:18:28;101575.78;;;21.52;53.91
69749;BME280;57019;52.354;6.584;2022-09-12T09:20:59;101574.13;;;21.51;54.10
69749;BME280;57019;52.354;6.584;2022-09-12T09:23:30;101574.13;;;21.51;54.04
69749;BME280;57019;52.354;6.584;2022-09-12T09:26:03;101578.41;;;21.52;54.15
69749;BME280;57019;52.354;6.584;2022-09-12T09:28:45;101580.72;;;21.56;54.17
69749;BME280;57019;52.354;6.584;2022-09-12T09:31:15;101571.19;;;21.55;54.10
69749;BME280;57019;52.354;6.584;2022-09-12T09:33:41;101569.19;;;21.57;54.12
69749;BME280;57019;52.354;6.584;2022-09-12T09:36:33;101570.19;;;21.56;54.32
69749;BME280;57019;52.354;6.584;2022-09-12T09:39:04;101564.09;;;21.55;54.22
69749;BME280;57019;52.354;6.584;2022-09-12T09:44:20;101562.31;;;21.56;54.16
69749;BME280;57019;52.354;6.584;2022-09-12T09:46:48;101562.94;;;21.58;54.44
69749;BME280;57019;52.354;6.584;2022-09-12T09:49:17;101557.69;;;21.58;54.41
69749;BME280;57019;52.354;6.584;2022-09-12T09:51:42;101548.81;;;21.59;54.21
69749;BME280;57019;52.354;6.584;2022-09-12T09:54:18;101547.19;;;21.58;54.46
69749;BME280;57019;52.354;6.584;2022-09-12T09:56:45;101550.47;;;21.60;54.21
69749;BME280;57019;52.354;6.584;2022-09-12T09:59:15;101539.94;;;21.60;54.37
69749;BME280;57019;52.354;6.584;2022-09-12T10:01:50;101533.06;;;21.59;54.27
69749;BME280;57019;52.354;6.584;2022-09-12T10:04:24;101541.91;;;21.58;54.27
69749;BME280;57019;52.354;6.584;2022-09-12T10:06:51;101539.28;;;21.58;54.42
69749;BME280;57019;52.354;6.584;2022-09-12T10:09:29;101532.22;;;21.58;54.30
69749;BME280;57019;52.354;6.584;2022-09-12T10:11:58;101529.75;;;21.57;54.41
69749;BME280;57019;52.354;6.584;2022-09-12T10:14:33;101520.09;;;21.57;54.45
69749;BME280;57019;52.354;6.584;2022-09-12T10:17:43;101521.72;;;21.58;54.49
69749;BME280;57019;52.354;6.584;2022-09-12T10:19:49;101519.25;;;21.57;54.50
69749;BME280;57019;52.354;6.584;2022-09-12T10:22:17;101517.66;;;21.56;54.35
69749;BME280;57019;52.354;6.584;2022-09-12T10:24:52;101502.69;;;21.56;54.57
69749;BME280;57019;52.354;6.584;2022-09-12T10:27:22;101506.78;;;21.59;54.36
69749;BME280;57019;52.354;6.584;2022-09-12T10:29:53;101513.38;;;21.55;54.57
69749;BME280;57019;52.354;6.584;2022-09-12T10:32:24;101488.38;;;21.59;54.49
69749;BME280;57019;52.354;6.584;2022-09-12T10:34:53;101495.91;;;21.62;54.58
69749;BME280;57019;52.354;6.584;2022-09-12T10:37:32;101497.38;;;21.64;54.30
69749;BME280;57019;52.354;6.584;2022-09-12T10:39:59;101494.75;;;21.64;54.45
69749;BME280;57019;52.354;6.584;2022-09-12T10:42:49;101495.91;;;21.62;54.25
69749;BME280;57019;52.354;6.584;2022-09-12T10:47:44;101492.75;;;21.66;54.56
69749;BME280;57019;52.354;6.584;2022-09-12T10:52:52;101484.72;;;21.68;54.31
69749;BME280;57019;52.354;6.584;2022-09-12T10:55:23;101483.34;;;21.72;54.89
69749;BME280;57019;52.354;6.584;2022-09-12T10:58:12;101491.88;;;21.74;54.79
69749;BME280;57019;52.354;6.584;2022-09-12T11:01:46;101488.88;;;21.77;54.76
69749;BME280;57019;52.354;6.584;2022-09-12T11:18:15;101486.06;;;21.79;54.86
69749;BME280;57019;52.354;6.584;2022-09-12T11:29:21;101467.06;;;21.77;55.12
69749;BME280;57019;52.354;6.584;2022-09-12T11:32:07;101465.41;;;21.76;54.75
69749;BME280;57019;52.354;6.584;2022-09-12T11:34:51;101469.13;;;21.81;54.73
69749;BME280;57019;52.354;6.584;2022-09-12T11:37:43;101465.34;;;21.84;54.87
69749;BME280;57019;52.354;6.584;2022-09-12T11:45:43;101453.91;;;21.77;54.95
69749;BME280;57019;52.354;6.584;2022-09-12T11:50:56;101448.84;;;21.75;54.66
69749;BME280;57019;52.354;6.584;2022-09-12T11:53:27;101437.47;;;21.75;54.81
69749;BME280;57019;52.354;6.584;2022-09-12T11:56:18;101444.56;;;21.74;54.85
69749;BME280;57019;52.354;6.584;2022-09-12T11:58:49;101452.44;;;21.74;55.06
69749;BME280;57019;52.354;6.584;2022-09-12T12:01:21;101448.16;;;21.73;54.88
69749;BME280;57019;52.354;6.584;2022-09-12T12:03:48;101449.81;;;21.74;55.03
69749;BME280;57019;52.354;6.584;2022-09-12T12:06:20;101446.03;;;21.77;54.95
69749;BME280;57019;52.354;6.584;2022-09-12T12:08:47;101443.56;;;21.75;54.94
69749;BME280;57019;52.354;6.584;2022-09-12T12:11:28;101445.38;;;21.75;54.77
69749;BME280;57019;52.354;6.584;2022-09-12T12:14:02;101440.94;;;21.75;54.61
69749;BME280;57019;52.354;6.584;2022-09-12T12:16:33;101442.72;;;21.75;55.01
69749;BME280;57019;52.354;6.584;2022-09-12T12:19:18;101440.09;;;21.75;54.94
69749;BME280;57019;52.354;6.584;2022-09-12T12:21:49;101439.13;;;21.76;54.72
69749;BME280;57019;52.354;6.584;2022-09-12T12:24:23;101438.59;;;21.80;54.69
69749;BME280;57019;52.354;6.584;2022-09-12T12:34:38;101432.25;;;21.90;54.69
69749;BME280;57019;52.354;6.584;2022-09-12T12:47:45;101419.19;;;21.81;54.51
69749;BME280;57019;52.354;6.584;2022-09-12T12:50:19;101414.59;;;21.83;54.34
69749;BME280;57019;52.354;6.584;2022-09-12T12:53:31;101423.47;;;21.82;54.58
69749;BME280;57019;52.354;6.584;2022-09-12T12:58:35;101407.31;;;21.85;54.03
69749;BME280;57019;52.354;6.584;2022-09-12T13:01:12;101404.06;;;21.83;54.33
69749;BME280;57019;52.354;6.584;2022-09-12T13:03:42;101396.38;;;21.82;54.50
69749;BME280;57019;52.354;6.584;2022-09-12T13:09:04;101388.91;;;21.85;54.16
69749;BME280;57019;52.354;6.584;2022-09-12T13:11:35;101383.66;;;21.85;54.12
69749;BME280;57019;52.354;6.584;2022-09-12T13:14:05;101383.31;;;21.89;53.88
69749;BME280;57019;52.354;6.584;2022-09-12T13:16:35;101382.50;;;21.88;54.09
69749;BME280;57019;52.354;6.584;2022-09-12T13:19:04;101381.31;;;21.91;53.87
69749;BME280;57019;52.354;6.584;2022-09-12T13:21:30;101368.97;;;21.91;53.95
69749;BME280;57019;52.354;6.584;2022-09-12T13:24:04;101367.38;;;21.90;53.96
69749;BME280;57019;52.354;6.584;2022-09-12T13:26:42;101361.81;;;21.85;53.99
69749;BME280;57019;52.354;6.584;2022-09-12T13:29:14;101357.66;;;21.91;53.72
69749;BME280;57019;52.354;6.584;2022-09-12T13:31:41;101359.81;;;21.87;53.80
69749;BME280;57019;52.354;6.584;2022-09-12T13:34:08;101357.84;;;21.89;54.04
69749;BME280;57019;52.354;6.584;2022-09-12T13:36:42;101363.72;;;21.91;53.84
69749;BME280;57019;52.354;6.584;2022-09-12T13:39:26;101347.13;;;21.91;53.73
69749;BME280;57019;52.354;6.584;2022-09-12T13:44:43;101337.59;;;21.90;53.83
69749;BME280;57019;52.354;6.584;2022-09-12T13:47:14;101330.09;;;21.86;53.68
69749;BME280;57019;52.354;6.584;2022-09-12T13:49:41;101340.25;;;21.90;53.80
69749;BME280;57019;52.354;6.584;2022-09-12T13:52:14;101331.72;;;21.88;53.40
69749;BME280;57019;52.354;6.584;2022-09-12T13:54:43;101330.38;;;21.92;53.76
69749;BME280;57019;52.354;6.584;2022-09-12T13:59:54;101313.94;;;21.90;53.16
69749;BME280;57019;52.354;6.584;2022-09-12T14:02:23;101322.84;;;21.89;53.58
69749;BME280;57019;52.354;6.584;2022-09-12T14:04:51;101310.78;;;21.94;53.17
69749;BME280;57019;52.354;6.584;2022-09-12T14:07:56;101307.59;;;21.99;53.56
69749;BME280;57019;52.354;6.584;2022-09-12T14:10:32;101310.06;;;22.00;53.32
69749;BME280;57019;52.354;6.584;2022-09-12T14:13:03;101307.00;;;21.97;53.20
69749;BME280;57019;52.354;6.584;2022-09-12T14:15:31;101302.72;;;21.96;53.23
69749;BME280;57019;52.354;6.584;2022-09-12T14:18:00;101300.09;;;21.96;53.05
69749;BME280;57019;52.354;6.584;2022-09-12T14:20:28;101300.72;;;21.98;53.16
69749;BME280;57019;52.354;6.584;2022-09-12T14:22:59;101301.97;;;22.02;53.25
69749;BME280;57019;52.354;6.584;2022-09-12T14:25:27;101309.75;;;22.10;53.49
69749;BME280;57019;52.354;6.584;2022-09-12T14:27:56;101300.16;;;22.17;53.30
69749;BME280;57019;52.354;6.584;2022-09-12T14:30:27;101303.41;;;22.19;53.04
69749;BME280;57019;52.354;6.584;2022-09-12T14:33:20;101290.91;;;22.22;53.16
69749;BME280;57019;52.354;6.584;2022-09-12T14:35:51;101296.44;;;22.12;53.51
69749;BME280;57019;52.354;6.584;2022-09-12T14:38:34;101306.78;;;22.13;53.69
69749;BME280;57019;52.354;6.584;2022-09-12T14:41:05;101299.88;;;22.12;53.06
69749;BME280;57019;52.354;6.584;2022-09-12T14:43:35;101304.16;;;22.13;53.34
69749;BME280;57019;52.354;6.584;2022-09-12T14:46:04;101299.06;;;22.12;53.22
69749;BME280;57019;52.354;6.584;2022-09-12T14:48:34;101302.91;;;22.09;53.30
69749;BME280;57019;52.354;6.584;2022-09-12T14:51:02;101289.63;;;22.17;52.87
69749;BME280;57019;52.354;6.584;2022-09-12T14:53:36;101298.53;;;22.16;53.38
69749;BME280;57019;52.354;6.584;2022-09-12T14:56:07;101296.28;;;22.13;53.42
69749;BME280;57019;52.354;6.584;2022-09-12T14:58:33;101296.69;;;22.17;53.39
69749;BME280;57019;52.354;6.584;2022-09-12T15:03:48;101288.47;;;22.05;53.81
69749;BME280;57019;52.354;6.584;2022-09-12T15:06:29;101291.13;;;22.05;53.65
69749;BME280;57019;52.354;6.584;2022-09-12T15:08:58;101298.16;;;22.05;54.05
69749;BME280;57019;52.354;6.584;2022-09-12T15:11:25;101287.03;;;22.02;53.89
69749;BME280;57019;52.354;6.584;2022-09-12T15:13:50;101278.19;;;22.10;53.87
69749;BME280;57019;52.354;6.584;2022-09-12T15:16:16;101272.13;;;22.10;53.65
69749;BME280;57019;52.354;6.584;2022-09-12T15:18:42;101274.97;;;22.08;53.67